Terminal Aerodrome Forecast
Issued by NWS

Home | Current Version | Previous Version | Text Only | Print | Product List | Glossary On
Versions: 1 2 3 4 5 6 7 8 9 10 11 12 13 14 15 16 17 18
848
FTUS41 KCAR 232347 CCA
TAFBHB
TAF COR
KBHB 232347Z 2400/2424 20006KT 5SM BR OVC007
     FM240200 19005KT 2SM BR OVC004
     FM240400 19005KT 1/2SM FG OVC003
     FM240600 18007KT 1/4SM FG OVC001
     FM241200 18007KT 5SM BR OVC004
     FM241700 18011KT P6SM OVC020=

USA.gov is the U.S. government's official web portal to all federal, state and local government web resources and services.